createdAt,value
2023-04-20T00:00:12.992Z,99.71
2023-04-20T00:02:46.030Z,99.87
2023-04-20T00:04:58.749Z,99.97
2023-04-20T00:07:11.340Z,99.99
2023-04-20T00:09:24.088Z,100.00
2023-04-20T00:11:36.928Z,100.00
2023-04-20T00:13:49.543Z,100.00
2023-04-20T00:16:03.051Z,100.00
2023-04-20T00:18:16.291Z,100.00
2023-04-20T00:20:28.935Z,100.00
2023-04-20T00:22:41.475Z,100.00
2023-04-20T00:24:54.116Z,100.00
2023-04-20T00:27:06.826Z,100.00
2023-04-20T00:29:19.434Z,100.00
2023-04-20T00:31:32.295Z,100.00
2023-04-20T00:33:44.875Z,100.00
2023-04-20T00:35:57.504Z,100.00
2023-04-20T00:38:10.015Z,100.00
2023-04-20T00:40:22.618Z,100.00
2023-04-20T00:42:35.483Z,100.00
2023-04-20T00:44:47.992Z,100.00
2023-04-20T00:47:00.732Z,100.00
2023-04-20T00:49:13.348Z,100.00
2023-04-20T00:51:27.696Z,100.00
2023-04-20T00:53:41.081Z,100.00
2023-04-20T00:55:53.708Z,100.00
2023-04-20T00:58:06.625Z,100.00
2023-04-20T01:00:19.284Z,100.00
2023-04-20T01:02:31.932Z,100.00
2023-04-20T01:04:47.166Z,100.00
2023-04-20T01:06:59.717Z,100.00
2023-04-20T01:09:15.187Z,100.00
2023-04-20T01:11:27.912Z,100.00
2023-04-20T01:13:40.464Z,100.00
2023-04-20T01:15:53.079Z,100.00
2023-04-20T01:18:06.050Z,100.00
2023-04-20T01:20:20.357Z,100.00
2023-04-20T01:22:32.897Z,100.00
2023-04-20T01:24:45.978Z,100.00
2023-04-20T01:26:58.562Z,100.00
2023-04-20T01:29:11.252Z,100.00
2023-04-20T01:31:23.837Z,100.00
2023-04-20T01:33:37.382Z,100.00
2023-04-20T01:35:51.892Z,100.00
2023-04-20T01:38:04.453Z,100.00
2023-04-20T01:40:17.072Z,100.00
2023-04-20T01:42:29.655Z,100.00
2023-04-20T01:44:42.201Z,100.00
2023-04-20T01:46:54.769Z,100.00
2023-04-20T01:49:08.211Z,100.00
2023-04-20T01:51:20.781Z,100.00
2023-04-20T01:53:33.340Z,100.00
2023-04-20T01:55:45.839Z,100.00
2023-04-20T01:58:00.223Z,100.00
2023-04-20T02:00:13.473Z,100.00
2023-04-20T02:02:26.079Z,100.00
2023-04-20T02:04:38.862Z,100.00
2023-04-20T02:06:51.392Z,100.00
2023-04-20T02:09:04.018Z,100.00
2023-04-20T02:11:16.558Z,100.00
2023-04-20T02:13:29.105Z,100.00
2023-04-20T02:15:41.632Z,100.00
2023-04-20T02:17:54.233Z,100.00
2023-04-20T02:20:09.082Z,100.00
2023-04-20T02:22:21.605Z,100.00
2023-04-20T02:24:34.180Z,100.00
2023-04-20T02:26:46.766Z,100.00
2023-04-20T02:28:59.350Z,100.00
2023-04-20T02:31:12.112Z,100.00
2023-04-20T02:33:24.716Z,100.00
2023-04-20T02:35:37.279Z,100.00
2023-04-20T02:37:49.829Z,100.00
2023-04-20T02:40:02.537Z,100.00
2023-04-20T02:42:15.143Z,100.00
2023-04-20T02:44:27.677Z,100.00
2023-04-20T02:46:40.288Z,100.00
2023-04-20T02:48:52.960Z,100.00
2023-04-20T02:51:05.516Z,100.00
2023-04-20T02:53:18.154Z,100.00
2023-04-20T02:55:31.068Z,100.00
2023-04-20T02:57:43.605Z,100.00
2023-04-20T02:59:56.514Z,100.00
2023-04-20T03:02:09.189Z,100.00
2023-04-20T03:04:22.216Z,100.00
2023-04-20T03:06:38.552Z,100.00
2023-04-20T03:08:51.385Z,100.00
2023-04-20T03:11:04.073Z,100.00
2023-04-20T03:13:16.856Z,100.00
2023-04-20T03:15:29.434Z,100.00
2023-04-20T03:17:41.976Z,100.00
2023-04-20T03:19:54.592Z,100.00
2023-04-20T03:22:07.643Z,100.00
2023-04-20T03:24:20.435Z,100.00
2023-04-20T03:26:32.909Z,100.00
2023-04-20T03:28:45.480Z,100.00
2023-04-20T03:30:57.990Z,100.00
2023-04-20T03:33:11.053Z,100.00
2023-04-20T03:35:23.683Z,100.00
2023-04-20T03:37:37.400Z,100.00
2023-04-20T03:39:49.920Z,100.00
2023-04-20T03:42:03.651Z,100.00
2023-04-20T03:44:16.741Z,100.00
2023-04-20T03:46:29.323Z,100.00
2023-04-20T03:48:41.906Z,100.00
2023-04-20T03:50:54.593Z,100.00
2023-04-20T03:53:07.105Z,100.00
2023-04-20T03:55:19.762Z,100.00
2023-04-20T03:57:33.555Z,100.00
2023-04-20T03:59:46.106Z,100.00
2023-04-20T04:02:00.136Z,100.00
2023-04-20T04:04:13.672Z,100.00
2023-04-20T04:06:27.424Z,100.00
2023-04-20T04:08:40.237Z,100.00
2023-04-20T04:10:52.996Z,100.00
2023-04-20T04:13:05.718Z,100.00
2023-04-20T04:15:19.557Z,100.00
2023-04-20T04:17:32.391Z,100.00
2023-04-20T04:19:45.249Z,100.00
2023-04-20T04:21:58.020Z,100.00
2023-04-20T04:24:10.694Z,100.00
2023-04-20T04:26:24.841Z,100.00
2023-04-20T04:28:37.659Z,100.00
2023-04-20T04:30:50.464Z,100.00
2023-04-20T04:33:05.108Z,100.00
2023-04-20T04:35:18.046Z,100.00
2023-04-20T04:37:31.043Z,100.00
2023-04-20T04:39:43.797Z,100.00
2023-04-20T04:41:57.859Z,100.00
2023-04-20T04:44:11.204Z,100.00
2023-04-20T04:46:25.505Z,100.00
2023-04-20T04:48:40.748Z,100.00
2023-04-20T04:50:53.501Z,100.00
2023-04-20T04:53:06.506Z,100.00
2023-04-20T04:55:19.472Z,100.00
2023-04-20T04:57:32.209Z,100.00
2023-04-20T04:59:45.035Z,100.00
2023-04-20T05:01:57.821Z,100.00
2023-04-20T05:04:14.483Z,100.00
2023-04-20T05:06:27.357Z,100.00
2023-04-20T05:08:40.342Z,100.00
2023-04-20T05:10:52.957Z,100.00
2023-04-20T05:13:05.792Z,100.00
2023-04-20T05:15:18.794Z,100.00
2023-04-20T05:17:31.607Z,100.00
2023-04-20T05:19:44.281Z,100.00
2023-04-20T05:22:01.513Z,100.00
2023-04-20T05:24:19.480Z,100.00
2023-04-20T05:26:32.122Z,100.00
2023-04-20T05:28:44.787Z,100.00
2023-04-20T05:30:57.421Z,100.00
2023-04-20T05:33:10.090Z,100.00
2023-04-20T05:35:22.871Z,100.00
2023-04-20T05:37:35.592Z,100.00
2023-04-20T05:39:48.240Z,100.00
2023-04-20T05:42:01.703Z,100.00
2023-04-20T05:44:14.333Z,100.00
2023-04-20T05:46:27.598Z,100.00
2023-04-20T05:48:40.519Z,100.00
2023-04-20T05:50:55.093Z,100.00
2023-04-20T05:53:07.716Z,100.00
2023-04-20T05:55:22.658Z,100.00
2023-04-20T05:57:42.484Z,100.00
2023-04-20T05:59:56.092Z,100.00
2023-04-20T06:02:08.799Z,100.00
2023-04-20T06:04:21.633Z,100.00
2023-04-20T06:06:34.343Z,100.00
2023-04-20T06:08:46.958Z,100.00
2023-04-20T06:10:59.529Z,100.00
2023-04-20T06:13:12.067Z,100.00
2023-04-20T06:15:24.577Z,100.00
2023-04-20T06:17:40.405Z,100.00
2023-04-20T06:19:53.295Z,100.00
2023-04-20T06:22:07.850Z,100.00
2023-04-20T06:24:20.501Z,100.00
2023-04-20T06:26:33.017Z,100.00
2023-04-20T06:28:47.267Z,100.00
2023-04-20T06:30:59.873Z,100.00
2023-04-20T06:33:17.038Z,100.00
2023-04-20T06:35:29.863Z,100.00
2023-04-20T06:37:42.415Z,100.00
2023-04-20T06:39:55.064Z,100.00
2023-04-20T06:42:08.572Z,100.00
2023-04-20T06:44:21.082Z,100.00
2023-04-20T06:46:33.690Z,100.00
2023-04-20T06:48:46.357Z,100.00
2023-04-20T06:50:58.891Z,100.00
2023-04-20T06:53:11.451Z,100.00
2023-04-20T06:55:24.011Z,100.00
2023-04-20T06:57:39.577Z,100.00
2023-04-20T06:59:52.121Z,100.00
2023-04-20T07:02:04.750Z,100.00
2023-04-20T07:04:17.494Z,100.00
2023-04-20T07:06:30.103Z,100.00
2023-04-20T07:08:42.726Z,99.91
2023-04-20T07:10:55.252Z,99.97
2023-04-20T07:13:07.785Z,99.94
2023-04-20T07:15:20.462Z,99.85
2023-04-20T07:17:33.504Z,99.71
2023-04-20T07:19:46.135Z,99.18
2023-04-20T07:21:58.887Z,98.70
2023-04-20T07:24:11.585Z,98.69
2023-04-20T07:26:24.829Z,98.26
2023-04-20T07:28:37.473Z,98.18
2023-04-20T07:30:49.984Z,98.02
2023-04-20T07:33:02.720Z,97.35
2023-04-20T07:35:15.490Z,97.30
2023-04-20T07:37:28.074Z,96.98
2023-04-20T07:39:40.734Z,96.70
2023-04-20T07:41:53.264Z,96.44
2023-04-20T07:44:05.832Z,95.87
2023-04-20T07:46:22.548Z,95.54
2023-04-20T07:48:35.191Z,95.24
2023-04-20T07:50:47.828Z,95.11
2023-04-20T07:53:00.403Z,94.89
2023-04-20T07:55:14.292Z,94.63
2023-04-20T07:57:28.627Z,94.55
2023-04-20T07:59:41.347Z,94.33
2023-04-20T08:01:59.880Z,94.17
2023-04-20T08:04:12.661Z,93.76
2023-04-20T08:06:25.657Z,93.50
2023-04-20T08:08:38.210Z,93.18
2023-04-20T08:10:50.836Z,93.13
2023-04-20T08:13:03.580Z,93.09
2023-04-20T08:15:16.422Z,92.90
2023-04-20T08:17:29.053Z,93.42
2023-04-20T08:19:43.743Z,93.55
2023-04-20T08:21:57.616Z,93.31
2023-04-20T08:24:10.192Z,92.72
2023-04-20T08:26:25.258Z,92.99
2023-04-20T08:28:37.850Z,92.62
2023-04-20T08:30:51.212Z,92.90
2023-04-20T08:33:03.923Z,92.87
2023-04-20T08:35:16.586Z,92.60
2023-04-20T08:37:31.269Z,92.85
2023-04-20T08:39:45.460Z,92.95
2023-04-20T08:41:58.292Z,92.72
2023-04-20T08:44:11.038Z,92.40
2023-04-20T08:46:24.526Z,92.44
2023-04-20T08:48:38.028Z,92.47
2023-04-20T08:50:51.129Z,92.23
2023-04-20T08:53:04.535Z,91.89
2023-04-20T08:55:18.677Z,91.78
2023-04-20T08:57:31.221Z,91.24
2023-04-20T08:59:43.891Z,91.13
2023-04-20T09:01:56.555Z,90.68
2023-04-20T09:04:20.092Z,90.28
2023-04-20T09:06:34.234Z,90.01
2023-04-20T09:08:46.854Z,90.15
2023-04-20T09:10:59.411Z,89.70
2023-04-20T09:13:22.726Z,89.29
2023-04-20T09:15:35.456Z,89.48
2023-04-20T09:17:48.011Z,89.33
2023-04-20T09:20:01.028Z,89.54
2023-04-20T09:22:13.792Z,89.47
2023-04-20T09:24:31.965Z,88.97
2023-04-20T09:26:44.535Z,88.69
2023-04-20T09:28:57.153Z,87.29
2023-04-20T09:31:19.057Z,87.11
2023-04-20T09:33:33.421Z,87.13
2023-04-20T09:35:46.054Z,87.61
2023-04-20T09:37:59.721Z,87.80
2023-04-20T09:40:14.003Z,87.31
2023-04-20T09:42:28.863Z,85.84
2023-04-20T09:44:42.006Z,85.74
2023-04-20T09:46:54.632Z,85.12
2023-04-20T09:49:09.689Z,84.38
2023-04-20T09:51:22.820Z,83.42
2023-04-20T09:53:36.188Z,82.91
2023-04-20T09:55:51.222Z,81.44
2023-04-20T09:58:04.870Z,80.11
2023-04-20T10:00:17.939Z,79.32
2023-04-20T10:02:30.984Z,78.67
2023-04-20T10:04:57.422Z,78.22
2023-04-20T10:07:10.023Z,78.07
2023-04-20T10:09:25.912Z,77.99
2023-04-20T10:11:53.271Z,78.39
2023-04-20T10:14:18.221Z,78.01
2023-04-20T10:16:31.010Z,77.31
2023-04-20T10:18:43.701Z,77.37
2023-04-20T10:21:09.455Z,77.11
2023-04-20T10:23:22.043Z,76.09
2023-04-20T10:25:34.636Z,75.90
2023-04-20T10:28:13.375Z,75.62
2023-04-20T10:30:27.536Z,76.03
2023-04-20T10:32:40.238Z,75.59
2023-04-20T10:35:07.744Z,75.07
2023-04-20T10:37:20.769Z,75.28
2023-04-20T10:39:33.331Z,75.60
2023-04-20T10:41:53.427Z,75.31
2023-04-20T10:44:10.154Z,74.46
2023-04-20T10:46:24.600Z,72.32
2023-04-20T10:48:37.195Z,71.34
2023-04-20T10:50:49.727Z,69.01
2023-04-20T10:53:03.948Z,68.15
2023-04-20T10:55:21.289Z,65.65
2023-04-20T10:57:33.895Z,63.78
2023-04-20T10:59:46.850Z,63.09
2023-04-20T11:02:01.363Z,61.21
2023-04-20T11:04:17.861Z,59.00
2023-04-20T11:06:32.267Z,59.18
2023-04-20T11:08:44.782Z,58.29
2023-04-20T11:10:57.346Z,57.75
2023-04-20T11:13:22.224Z,57.74
2023-04-20T11:15:35.317Z,56.95
2023-04-20T11:17:47.957Z,56.17
2023-04-20T11:20:12.180Z,56.77
2023-04-20T11:22:24.698Z,56.55
2023-04-20T11:24:38.206Z,56.51
2023-04-20T11:26:54.164Z,56.11
2023-04-20T11:29:06.872Z,55.50
2023-04-20T11:31:19.565Z,55.29
2023-04-20T11:33:34.083Z,54.56
2023-04-20T11:35:46.726Z,54.71
2023-04-20T11:37:59.455Z,53.99
2023-04-20T11:40:13.288Z,53.08
2023-04-20T11:42:25.835Z,52.59
2023-04-20T11:44:41.215Z,51.88
2023-04-20T11:46:57.029Z,50.53
2023-04-20T11:49:09.689Z,50.04
2023-04-20T11:51:22.310Z,49.67
2023-04-20T11:53:34.885Z,49.26
2023-04-20T11:55:47.460Z,48.67
2023-04-20T11:58:00.266Z,48.29
2023-04-20T12:00:13.849Z,46.39
2023-04-20T12:02:26.873Z,45.77
2023-04-20T12:04:39.771Z,45.46
2023-04-20T12:06:52.439Z,44.69
2023-04-20T12:09:06.367Z,43.00
2023-04-20T12:11:19.077Z,41.17
2023-04-20T12:13:31.621Z,40.91
2023-04-20T12:15:44.191Z,41.38
2023-04-20T12:17:56.851Z,41.18
2023-04-20T12:20:12.073Z,40.77
2023-04-20T12:22:24.813Z,40.59
2023-04-20T12:24:37.411Z,41.13
2023-04-20T12:26:50.083Z,40.64
2023-04-20T12:29:02.711Z,40.37
2023-04-20T12:31:15.303Z,39.82
2023-04-20T12:33:28.286Z,40.08
2023-04-20T12:35:41.022Z,39.39
2023-04-20T12:37:53.733Z,40.13
2023-04-20T12:40:07.400Z,40.54
2023-04-20T12:42:19.994Z,41.35
2023-04-20T12:44:32.593Z,42.65
2023-04-20T12:46:45.561Z,43.24
2023-04-20T12:48:58.181Z,43.92
2023-04-20T12:51:10.812Z,44.91
2023-04-20T12:53:23.381Z,45.12
2023-04-20T12:55:35.907Z,44.92
2023-04-20T12:57:48.455Z,45.28
2023-04-20T13:00:03.285Z,45.51
2023-04-20T13:02:16.273Z,45.54
2023-04-20T13:04:29.230Z,45.10
2023-04-20T13:06:42.145Z,45.56
2023-04-20T13:08:54.704Z,45.59
2023-04-20T13:11:07.455Z,45.60
2023-04-20T13:13:20.033Z,45.22
2023-04-20T13:17:50.545Z,45.64
2023-04-20T13:20:04.948Z,45.97
2023-04-20T13:22:19.053Z,46.47
2023-04-20T13:24:31.908Z,46.04
2023-04-20T13:26:44.476Z,46.32
2023-04-20T13:28:58.383Z,46.54
2023-04-20T13:31:11.661Z,47.05
2023-04-20T13:33:24.668Z,47.61
2023-04-20T13:35:37.245Z,48.00
2023-04-20T13:37:50.375Z,48.70
2023-04-20T13:40:04.310Z,48.97
2023-04-20T13:42:16.862Z,49.40
2023-04-20T13:44:29.393Z,49.14
2023-04-20T13:46:46.236Z,47.89
2023-04-20T13:48:59.008Z,47.28
2023-04-20T13:51:11.559Z,47.79
2023-04-20T13:53:24.145Z,47.54
2023-04-20T13:55:36.685Z,47.77
2023-04-20T13:57:49.232Z,48.06
2023-04-20T14:00:02.199Z,49.13
2023-04-20T14:02:14.809Z,49.45
2023-04-20T14:04:27.546Z,49.60
2023-04-20T14:06:40.126Z,50.26
2023-04-20T14:08:52.911Z,50.92
2023-04-20T14:11:05.882Z,51.08
2023-04-20T14:13:18.639Z,51.51
2023-04-20T14:15:31.502Z,51.23
2023-04-20T14:17:44.286Z,50.64
2023-04-20T14:19:56.913Z,50.74
2023-04-20T14:22:09.539Z,50.93
2023-04-20T14:24:22.055Z,50.68
2023-04-20T14:26:34.725Z,51.45
2023-04-20T14:28:47.489Z,51.87
2023-04-20T14:31:01.758Z,52.19
2023-04-20T14:33:14.458Z,52.39
2023-04-20T14:35:28.360Z,52.65
2023-04-20T14:37:41.183Z,52.90
2023-04-20T14:39:53.698Z,53.11
2023-04-20T14:42:07.600Z,53.37
2023-04-20T14:44:20.331Z,53.46
2023-04-20T14:46:33.131Z,53.79
2023-04-20T14:48:46.445Z,53.71
2023-04-20T14:50:59.060Z,53.67
2023-04-20T14:53:11.704Z,53.48
2023-04-20T14:55:25.772Z,53.61
2023-04-20T14:57:38.555Z,53.35
2023-04-20T14:59:51.123Z,52.92
2023-04-20T15:02:05.788Z,52.87
2023-04-20T15:04:19.028Z,52.74
2023-04-20T15:06:32.124Z,52.86
2023-04-20T15:08:44.634Z,52.23
2023-04-20T15:10:57.270Z,51.62
2023-04-20T15:13:11.201Z,51.44
2023-04-20T15:15:25.498Z,51.23
2023-04-20T15:17:40.799Z,51.20
2023-04-20T15:19:53.379Z,50.52
2023-04-20T15:22:05.880Z,50.55
2023-04-20T15:24:18.663Z,50.71
2023-04-20T15:26:31.436Z,50.47
2023-04-20T15:28:45.060Z,50.38
2023-04-20T15:30:57.643Z,50.35
2023-04-20T15:33:11.227Z,50.75
2023-04-20T15:35:23.934Z,50.69
2023-04-20T15:37:36.453Z,50.91
2023-04-20T15:39:49.002Z,51.37
2023-04-20T15:42:02.962Z,51.63
2023-04-20T15:44:15.890Z,51.94
2023-04-20T15:46:28.581Z,51.79
2023-04-20T15:48:41.329Z,51.92
2023-04-20T15:50:53.937Z,52.31
2023-04-20T15:53:07.306Z,52.57
2023-04-20T15:55:19.945Z,52.74
2023-04-20T15:57:32.506Z,52.48
2023-04-20T15:59:45.078Z,52.30
2023-04-20T16:01:57.725Z,52.51
2023-04-20T16:04:10.784Z,53.08
2023-04-20T16:06:24.174Z,53.31
2023-04-20T16:08:38.485Z,53.39
2023-04-20T16:10:51.116Z,53.90
2023-04-20T16:13:03.807Z,54.36
2023-04-20T16:15:16.794Z,53.95
2023-04-20T16:17:29.421Z,54.13
2023-04-20T16:19:41.963Z,54.29
2023-04-20T16:21:54.533Z,54.57
2023-04-20T16:24:07.330Z,54.46
2023-04-20T16:26:20.948Z,54.79
2023-04-20T16:28:33.562Z,55.14
2023-04-20T16:30:46.084Z,55.23
2023-04-20T16:32:59.889Z,55.34
2023-04-20T16:35:12.564Z,55.38
2023-04-20T16:37:25.222Z,55.79
2023-04-20T16:39:37.737Z,55.57
2023-04-20T16:41:51.149Z,55.86
2023-04-20T16:44:03.722Z,55.79
2023-04-20T16:46:17.983Z,55.90
2023-04-20T16:48:31.012Z,56.08
2023-04-20T16:50:44.122Z,56.26
2023-04-20T16:52:56.628Z,56.49
2023-04-20T16:55:09.502Z,56.59
2023-04-20T16:57:22.013Z,56.88
2023-04-20T16:59:34.727Z,57.41
2023-04-20T17:01:48.999Z,57.59
2023-04-20T17:04:01.793Z,57.97
2023-04-20T17:06:14.526Z,58.12
2023-04-20T17:08:27.090Z,58.65
2023-04-20T17:10:39.948Z,58.77
2023-04-20T17:12:52.482Z,58.79
2023-04-20T17:15:05.531Z,59.06
2023-04-20T17:17:18.057Z,59.46
2023-04-20T17:19:30.985Z,59.79
2023-04-20T17:21:45.484Z,59.95
2023-04-20T17:23:58.101Z,60.36
2023-04-20T17:26:10.711Z,60.68
2023-04-20T17:28:23.274Z,60.98
2023-04-20T17:30:35.884Z,61.24
2023-04-20T17:32:48.540Z,61.34
2023-04-20T17:35:01.335Z,61.52
2023-04-20T17:37:15.192Z,61.88
2023-04-20T17:39:27.699Z,62.07
2023-04-20T17:41:40.223Z,62.22
2023-04-20T17:43:53.013Z,62.68
2023-04-20T17:46:05.802Z,63.00
2023-04-20T17:48:18.508Z,63.41
2023-04-20T17:50:31.067Z,63.74
2023-04-20T17:52:43.713Z,64.19
2023-04-20T17:54:57.599Z,64.39
2023-04-20T17:57:10.236Z,64.85
2023-04-20T17:59:22.880Z,65.07
2023-04-20T18:01:35.876Z,65.46
2023-04-20T18:03:49.980Z,65.55
2023-04-20T18:06:03.257Z,65.80
2023-04-20T18:08:17.558Z,66.22
2023-04-20T18:10:30.273Z,66.42
2023-04-20T18:12:44.818Z,66.57
2023-04-20T18:14:57.395Z,67.07
2023-04-20T18:17:10.019Z,67.42
2023-04-20T18:19:22.785Z,67.67
2023-04-20T18:21:35.557Z,67.89
2023-04-20T18:23:48.549Z,68.09
2023-04-20T18:26:01.208Z,68.56
2023-04-20T18:28:13.751Z,68.74
2023-04-20T18:30:26.416Z,69.24
2023-04-20T18:32:39.392Z,69.46
2023-04-20T18:34:52.265Z,69.95
2023-04-20T18:37:04.923Z,70.02
2023-04-20T18:39:17.415Z,69.90
2023-04-20T18:41:30.098Z,70.30
2023-04-20T18:43:45.373Z,70.69
2023-04-20T18:45:58.030Z,70.98
2023-04-20T18:48:10.993Z,71.48
2023-04-20T18:50:24.405Z,71.81
2023-04-20T18:52:36.961Z,72.47
2023-04-20T18:54:49.558Z,72.48
2023-04-20T18:57:02.775Z,72.94
2023-04-20T18:59:15.439Z,73.21
2023-04-20T19:01:28.585Z,73.70
2023-04-20T19:03:45.376Z,73.92
2023-04-20T19:05:59.848Z,74.19
2023-04-20T19:08:12.341Z,74.39
2023-04-20T19:10:26.245Z,74.75
2023-04-20T19:12:38.805Z,75.01
2023-04-20T19:14:51.386Z,75.00
2023-04-20T19:17:06.007Z,74.98
2023-04-20T19:19:18.791Z,75.49
2023-04-20T19:21:32.646Z,75.58
2023-04-20T19:23:45.272Z,75.55
2023-04-20T19:25:57.898Z,75.62
2023-04-20T19:28:12.049Z,75.76
2023-04-20T19:30:24.709Z,75.80
2023-04-20T19:32:37.370Z,76.04
2023-04-20T19:34:52.477Z,76.15
2023-04-20T19:37:05.025Z,76.55
2023-04-20T19:39:17.689Z,76.82
2023-04-20T19:41:30.308Z,76.79
2023-04-20T19:43:42.863Z,76.98
2023-04-20T19:45:55.808Z,77.15
2023-04-20T19:48:08.477Z,77.40
2023-04-20T19:50:21.155Z,77.47
2023-04-20T19:52:35.040Z,77.34
2023-04-20T19:54:47.635Z,77.49
2023-04-20T19:57:00.168Z,77.77
2023-04-20T19:59:12.681Z,77.79
2023-04-20T20:01:25.443Z,78.12
2023-04-20T20:03:38.283Z,78.38
2023-04-20T20:05:51.107Z,78.79
2023-04-20T20:08:04.381Z,79.10
2023-04-20T20:10:16.942Z,79.42
2023-04-20T20:12:29.645Z,79.71
2023-04-20T20:14:42.238Z,79.79
2023-04-20T20:16:56.513Z,80.07
2023-04-20T20:19:09.144Z,80.30
2023-04-20T20:21:21.826Z,80.47
2023-04-20T20:23:34.475Z,80.61
2023-04-20T20:25:47.221Z,80.92
2023-04-20T20:27:59.995Z,81.12
2023-04-20T20:30:13.966Z,81.40
2023-04-20T20:32:26.613Z,81.60
2023-04-20T20:34:39.184Z,81.82
2023-04-20T20:36:53.264Z,82.17
2023-04-20T20:39:06.585Z,82.41
2023-04-20T20:41:20.570Z,82.77
2023-04-20T20:43:34.356Z,82.83
2023-04-20T20:45:47.337Z,82.93
2023-04-20T20:47:59.973Z,83.39
2023-04-20T20:50:14.689Z,83.60
2023-04-20T20:52:27.229Z,83.85
2023-04-20T20:54:39.829Z,83.97
2023-04-20T20:56:52.401Z,84.07
2023-04-20T20:59:05.068Z,84.24
2023-04-20T21:01:18.024Z,84.36
2023-04-20T21:03:31.327Z,84.31
2023-04-20T21:05:44.105Z,84.37
2023-04-20T21:07:56.784Z,84.42
2023-04-20T21:10:11.502Z,84.62
2023-04-20T21:12:24.108Z,84.68
2023-04-20T21:14:37.423Z,85.16
2023-04-20T21:16:50.019Z,84.96
2023-04-20T21:19:02.662Z,85.48
2023-04-20T21:21:16.487Z,85.46
2023-04-20T21:23:29.137Z,85.61
2023-04-20T21:25:41.696Z,85.50
2023-04-20T21:27:54.324Z,85.94
2023-04-20T21:30:07.395Z,86.02
2023-04-20T21:32:20.267Z,86.16
2023-04-20T21:34:32.945Z,86.59
2023-04-20T21:36:45.908Z,86.94
2023-04-20T21:38:58.694Z,87.00
2023-04-20T21:41:11.342Z,87.27
2023-04-20T21:43:23.970Z,87.42
2023-04-20T21:45:36.609Z,87.30
2023-04-20T21:47:49.219Z,87.54
2023-04-20T21:50:01.871Z,87.62
2023-04-20T21:52:14.421Z,87.79
2023-04-20T21:54:26.988Z,87.98
2023-04-20T21:56:39.564Z,88.06
2023-04-20T21:58:52.154Z,88.00
2023-04-20T22:01:04.871Z,88.27
2023-04-20T22:03:17.698Z,88.40
2023-04-20T22:05:30.499Z,88.05
2023-04-20T22:07:43.128Z,88.17
2023-04-20T22:09:55.809Z,88.42
2023-04-20T22:12:08.978Z,88.65
2023-04-20T22:14:21.620Z,89.17
2023-04-20T22:16:34.694Z,89.22
2023-04-20T22:18:47.959Z,89.08
2023-04-20T22:21:00.559Z,89.39
2023-04-20T22:23:13.175Z,89.33
2023-04-20T22:25:25.722Z,89.67
2023-04-20T22:27:38.684Z,90.17
2023-04-20T22:29:51.249Z,89.66
2023-04-20T22:32:03.874Z,89.82
2023-04-20T22:34:16.458Z,89.96
2023-04-20T22:36:29.044Z,90.06
2023-04-20T22:38:41.685Z,90.32
2023-04-20T22:40:54.472Z,90.77
2023-04-20T22:43:07.070Z,91.11
2023-04-20T22:45:20.340Z,91.35
2023-04-20T22:47:33.011Z,91.54
2023-04-20T22:49:46.666Z,91.70
2023-04-20T22:51:59.284Z,91.98
2023-04-20T22:54:12.078Z,92.33
2023-04-20T22:56:24.747Z,92.45
2023-04-20T22:58:37.356Z,92.49
2023-04-20T23:00:50.014Z,92.61
2023-04-20T23:03:02.731Z,92.59
2023-04-20T23:05:20.236Z,92.67
2023-04-20T23:07:33.340Z,92.58
2023-04-20T23:09:45.946Z,92.99
2023-04-20T23:11:58.623Z,93.01
2023-04-20T23:14:11.451Z,93.15
2023-04-20T23:16:24.103Z,93.36
2023-04-20T23:18:36.623Z,93.31
2023-04-20T23:20:49.149Z,93.04
2023-04-20T23:23:01.666Z,93.21
2023-04-20T23:25:14.298Z,93.38
2023-04-20T23:27:26.828Z,93.61
2023-04-20T23:29:39.403Z,93.73
2023-04-20T23:31:52.022Z,94.05
2023-04-20T23:34:04.891Z,94.07
2023-04-20T23:36:17.527Z,94.10
2023-04-20T23:38:30.052Z,94.30
2023-04-20T23:40:42.598Z,94.37
2023-04-20T23:42:55.238Z,94.34
2023-04-20T23:45:08.520Z,94.52
2023-04-20T23:47:21.077Z,94.51
2023-04-20T23:49:33.644Z,94.52
2023-04-20T23:51:46.247Z,94.64
2023-04-20T23:53:58.882Z,94.79
2023-04-20T23:56:11.766Z,94.90
2023-04-20T23:58:25.317Z,94.92
